Superior, WI

12:05 AM CST on January 21, 2018 (GMT -0600)
Bong

Weather History for KSUW - January, 2013

Change the Weather History Date:

Wednesday, January 2, 2013

  Actual Average Record
Temperature  
Mean Temperature 18 °F -  
Max Temperature 21 °F 21 °F 42 °F (1997)
Min Temperature 15 °F 3 °F -28 °F (1979)
Degree Days  
Heating Degree Days 47    
Moisture  
Dew Point 15 °F    
Average Humidity 86    
Maximum Humidity 93    
Minimum Humidity 80    
Precipitation  
Precipitation 0.00 in - - ()
Sea Level Pressure  
Sea Level Pressure 29.97 in    
Wind  
Wind Speed 6 mph (SSW)    
Max Wind Speed 10 mph    
Max Gust Speed -    
Visibility 8 miles    
Events Snow    
Averages and records for this station are not official NWS values.
T = Trace of Precipitation, MM = Missing Value Source: NWS Daily Summary

Daily Weather History Graph

Daily Weather History Graph

Search for Another Location

Airport or City:

Trip Planner

Search our weather history database for the weather conditions in past years. The results will help you decide how hot, cold, wet, or windy it might be!

Date:

Astronomy

Jan. 02, 2013 Rise Set
Actual Time 7:52 AM CST 4:32 PM CST
Civil Twilight 7:18 AM CST 5:07 PM CST
Nautical Twilight 6:39 AM CST 5:45 PM CST
Astronomical Twilight 6:02 AM CST 6:22 PM CST
Moon 10:27 PM CST (1/2) 10:14 AM CST (1/2)
Length of Visible Light 9h 49m
Length of Day
8h 39m
Waning Gibbous, 75% of the Moon is Illuminated
Jan 2
Waning Gibbous
Jan 4
Last Quarter
Jan 11
New
Jan 18
First Quarter
Jan 26
Full

Hourly Weather History & Observations

Time (CST) Temp. Windchill Dew Point Humidity Pressure Visibility Wind Dir Wind Speed Gust Speed Precip Events Conditions
12:15 AM 15.8 °F 8.6 °F 10.6 °F 80% 29.99 in 10.0 mi WSW 4.6 mph - N/A   Overcast
12:35 AM 15.8 °F 8.6 °F 10.9 °F 81% 29.99 in 10.0 mi WSW 4.6 mph - N/A   Overcast
12:55 AM 15.8 °F 7.2 °F 11.1 °F 82% 29.98 in 10.0 mi SW 5.8 mph - N/A   Overcast
1:15 AM 16.2 °F 7.6 °F 11.3 °F 81% 29.97 in 10.0 mi SW 5.8 mph - N/A   Overcast
1:35 AM 16.3 °F 9.2 °F 11.8 °F 82% 29.97 in 10.0 mi SW 4.6 mph - N/A   Overcast
1:55 AM 16.7 °F 8.3 °F 12.4 °F 83% 29.97 in 10.0 mi SSW 5.8 mph - N/A   Overcast
2:15 AM 17.1 °F 11.7 °F 12.9 °F 84% 29.96 in 10.0 mi WSW 3.5 mph - N/A   Overcast
2:35 AM 17.4 °F 10.4 °F 13.6 °F 85% 29.96 in 10.0 mi SW 4.6 mph - N/A   Overcast
2:55 AM 17.6 °F 12.3 °F 14.0 °F 86% 29.96 in 10.0 mi SW 3.5 mph - N/A   Overcast
3:15 AM 18.1 °F 8.9 °F 14.5 °F 86% 29.95 in 10.0 mi SSW 6.9 mph - N/A   Overcast
3:35 AM 18.3 °F 9.1 °F 14.9 °F 86% 29.95 in 10.0 mi SSW 6.9 mph - N/A   Overcast
3:55 AM 18.5 °F 9.3 °F 14.9 °F 86% 29.96 in 10.0 mi SW 6.9 mph - N/A   Overcast
4:15 AM 18.5 °F 13.3 °F 15.1 °F 86% 29.95 in 10.0 mi SSW 3.5 mph - N/A   Overcast
4:35 AM 18.5 °F 10.4 °F 15.1 °F 86% 29.96 in 10.0 mi SSW 5.8 mph - N/A   Overcast
4:55 AM 18.5 °F 10.4 °F 15.4 °F 88% 29.95 in 10.0 mi SW 5.8 mph - N/A   Overcast
5:15 AM 18.7 °F 11.9 °F 15.8 °F 89% 29.95 in 10.0 mi South 4.6 mph - N/A   Overcast
5:35 AM 18.3 °F 10.2 °F 15.8 °F 90% 29.95 in 7.0 mi South 5.8 mph - N/A   Overcast
5:55 AM 18.1 °F 10.0 °F 16.0 °F 91% 29.95 in 5.0 mi South 5.8 mph - N/A   Overcast
6:15 AM 18.1 °F 7.9 °F 16.3 °F 93% 29.95 in 5.0 mi South 8.1 mph - N/A   Overcast
6:35 AM 18.3 °F 9.1 °F 16.5 °F 93% 29.95 in 5.0 mi South 6.9 mph - N/A   Overcast
6:55 AM 18.5 °F 10.4 °F 16.7 °F 93% 29.95 in 5.0 mi South 5.8 mph - N/A   Overcast
7:15 AM 18.9 °F 13.7 °F 16.7 °F 91% 29.95 in 7.0 mi South 3.5 mph - N/A   Overcast
7:35 AM 19.0 °F 13.9 °F 16.7 °F 91% 29.95 in 7.0 mi South 3.5 mph - N/A   Overcast
7:55 AM 19.2 °F 12.5 °F 16.7 °F 90% 29.95 in 7.0 mi South 4.6 mph - N/A   Overcast
8:15 AM 19.4 °F 11.5 °F 16.7 °F 89% 29.94 in 7.0 mi SSW 5.8 mph - N/A   Overcast
8:35 AM 19.8 °F 10.8 °F 16.7 °F 88% 29.95 in 10.0 mi SSW 6.9 mph - N/A   Overcast
8:55 AM 19.9 °F 11.1 °F 16.7 °F 87% 29.95 in 10.0 mi SSW 6.9 mph - N/A   Overcast
9:15 AM 20.1 °F 9.5 °F 16.7 °F 87% 29.95 in 10.0 mi SSW 9.2 mph - N/A   Overcast
9:35 AM 20.1 °F 8.8 °F 16.7 °F 87% 29.96 in 10.0 mi SW 10.4 mph - N/A   Overcast
9:55 AM 20.3 °F 9.8 °F 16.7 °F 86% 29.96 in 10.0 mi SSW 9.2 mph - N/A   Overcast
10:15 AM 20.3 °F 10.6 °F 16.5 °F 85% 29.96 in 10.0 mi SSW 8.1 mph - N/A   Overcast
10:35 AM 20.3 °F 11.5 °F 16.5 °F 85% 29.96 in 10.0 mi SSW 6.9 mph - N/A   Overcast
10:55 AM 20.3 °F 9.8 °F 16.3 °F 85% 29.96 in 10.0 mi SSW 9.2 mph - N/A   Overcast
11:15 AM 20.7 °F 11.9 °F 16.5 °F 84% 29.96 in 10.0 mi SSW 6.9 mph - N/A   Overcast
11:35 AM 20.8 °F 12.1 °F 16.5 °F 83% 29.96 in 10.0 mi SSW 6.9 mph - N/A   Overcast
11:55 AM 20.8 °F 11.2 °F 16.5 °F 83% 29.95 in 10.0 mi SSW 8.1 mph - N/A   Overcast
12:15 PM 21.0 °F 10.6 °F 16.2 °F 81% 29.95 in 10.0 mi SW 9.2 mph - N/A   Overcast
12:35 PM 21.0 °F 16.2 °F 16.3 °F 82% 29.94 in 10.0 mi SSW 3.5 mph - N/A   Overcast
12:55 PM 20.7 °F 11.9 °F 16.3 °F 83% 29.94 in 7.0 mi SSW 6.9 mph - N/A   Overcast
1:15 PM 20.7 °F 11.9 °F 16.3 °F 83% 29.93 in 7.0 mi SSW 6.9 mph - N/A   Overcast
1:35 PM 20.7 °F 11.9 °F 16.0 °F 82% 29.93 in 7.0 mi SSW 6.9 mph - N/A   Overcast
1:55 PM 20.7 °F 13.0 °F 16.2 °F 83% 29.94 in 7.0 mi SW 5.8 mph - N/A   Overcast
2:15 PM 20.7 °F 11.0 °F 16.2 °F 83% 29.94 in 7.0 mi SSW 8.1 mph - N/A   Overcast
2:35 PM 20.7 °F 11.9 °F 16.2 °F 83% 29.95 in 7.0 mi SSW 6.9 mph - N/A   Overcast
2:55 PM 20.3 °F 11.5 °F 15.8 °F 83% 29.95 in 7.0 mi South 6.9 mph - N/A   Overcast
3:15 PM 20.3 °F 11.5 °F 15.8 °F 83% 29.96 in 7.0 mi South 6.9 mph - N/A   Overcast
3:35 PM 20.3 °F 11.5 °F 16.3 °F 85% 29.96 in 2.0 mi South 6.9 mph - N/A Snow Light Snow
3:55 PM 20.1 °F 11.3 °F 16.7 °F 87% 29.97 in 2.0 mi South 6.9 mph - N/A Snow Light Snow
4:15 PM 19.8 °F 11.9 °F 16.3 °F 87% 29.97 in 3.0 mi South 5.8 mph - N/A Snow Light Snow
4:35 PM 19.4 °F 14.3 °F 16.2 °F 87% 29.98 in 4.0 mi South 3.5 mph - N/A Snow Light Snow
4:55 PM 19.4 °F 12.8 °F 16.3 °F 88% 29.98 in 7.0 mi South 4.6 mph - N/A   Overcast
5:15 PM 19.4 °F 14.3 °F 16.0 °F 87% 29.99 in 10.0 mi South 3.5 mph - N/A   Overcast
5:35 PM 19.4 °F 12.8 °F 15.8 °F 86% 29.99 in 10.0 mi South 4.6 mph - N/A   Overcast
5:55 PM 19.4 °F 11.5 °F 15.1 °F 83% 29.99 in 10.0 mi SSW 5.8 mph - N/A   Overcast
6:15 PM 19.4 °F 11.5 °F 14.9 °F 83% 29.99 in 10.0 mi SSW 5.8 mph - N/A   Overcast
6:35 PM 19.4 °F 10.4 °F 14.7 °F 82% 30.00 in 10.0 mi SW 6.9 mph - N/A   Overcast
6:55 PM 19.2 °F 10.2 °F 14.5 °F 82% 30.00 in 10.0 mi SW 6.9 mph - N/A   Overcast
7:15 PM 19.0 °F 12.3 °F 14.2 °F 81% 30.00 in 10.0 mi SW 4.6 mph - N/A   Overcast
7:35 PM 18.9 °F 9.8 °F 14.4 °F 83% 30.01 in 10.0 mi SW 6.9 mph - N/A   Overcast
7:55 PM 18.9 °F 9.8 °F 14.4 °F 83% 30.01 in 10.0 mi SW 6.9 mph - N/A   Overcast
8:15 PM 18.5 °F 9.3 °F 14.5 °F 85% 30.01 in 7.0 mi SW 6.9 mph - N/A   Overcast
8:35 PM 18.5 °F 8.4 °F 14.5 °F 85% 30.01 in 7.0 mi SSW 8.1 mph - N/A Snow Light Snow
8:55 PM 18.5 °F 8.4 °F 14.5 °F 85% 30.01 in 7.0 mi SW 8.1 mph - N/A   Overcast
9:15 PM 18.5 °F 8.4 °F 14.5 °F 85% 30.02 in 7.0 mi SW 8.1 mph - N/A   Overcast
9:35 PM 18.5 °F 10.4 °F 14.9 °F 86% 30.02 in 7.0 mi SW 5.8 mph - N/A   Overcast
9:55 PM 18.5 °F 8.4 °F 14.9 °F 86% 30.02 in 7.0 mi SW 8.1 mph - N/A   Overcast
10:15 PM 18.5 °F 8.4 °F 14.9 °F 86% 30.02 in 7.0 mi SW 8.1 mph - N/A   Overcast
10:35 PM 18.3 °F 8.2 °F 14.9 °F 86% 30.02 in 7.0 mi SW 8.1 mph - N/A   Overcast
10:55 PM 18.3 °F 9.1 °F 15.3 °F 88% 30.03 in 5.0 mi SW 6.9 mph - N/A   Overcast
11:15 PM 18.3 °F 8.2 °F 15.4 °F 89% 30.03 in 5.0 mi SW 8.1 mph - N/A   Overcast
11:35 PM 18.3 °F 9.1 °F 15.6 °F 89% 30.03 in 5.0 mi SW 6.9 mph - N/A   Overcast
11:55 PM 18.3 °F 8.2 °F 15.6 °F 89% 30.03 in 4.0 mi SW 8.1 mph - N/A   Overcast